sensor_id;sensor_type;location;lat;lon;timestamp;pressure;altitude;pressure_sealevel;temperature
60615;BMP280;46444;45.590;5.284;2023-04-15T00:01:58;97987.97;;;11.98
60615;BMP280;46444;45.590;5.284;2023-04-15T00:04:24;97993.34;;;12.03
60615;BMP280;46444;45.590;5.284;2023-04-15T00:06:50;97992.00;;;11.90
60615;BMP280;46444;45.590;5.284;2023-04-15T00:09:17;97992.81;;;12.01
60615;BMP280;46444;45.590;5.284;2023-04-15T00:11:44;97989.06;;;12.02
60615;BMP280;46444;45.590;5.284;2023-04-15T00:14:11;97987.19;;;12.02
60615;BMP280;46444;45.590;5.284;2023-04-15T00:16:40;97992.81;;;12.06
60615;BMP280;46444;45.590;5.284;2023-04-15T00:19:05;97987.97;;;11.98
60615;BMP280;46444;45.590;5.284;2023-04-15T00:21:30;97993.31;;;11.83
60615;BMP280;46444;45.590;5.284;2023-04-15T00:23:56;97996.50;;;11.85
60615;BMP280;46444;45.590;5.284;2023-04-15T00:26:22;97990.09;;;11.86
60615;BMP280;46444;45.590;5.284;2023-04-15T00:28:47;97994.38;;;11.92
60615;BMP280;46444;45.590;5.284;2023-04-15T00:31:13;97996.47;;;11.75
60615;BMP280;46444;45.590;5.284;2023-04-15T00:33:38;97994.38;;;11.82
60615;BMP280;46444;45.590;5.284;2023-04-15T00:36:05;97999.16;;;11.80
60615;BMP280;46444;45.590;5.284;2023-04-15T00:38:31;97987.94;;;11.83
60615;BMP280;46444;45.590;5.284;2023-04-15T00:40:56;97990.88;;;11.81
60615;BMP280;46444;45.590;5.284;2023-04-15T00:43:22;98004.50;;;11.75
60615;BMP280;46444;45.590;5.284;2023-04-15T00:45:48;97995.41;;;11.81
60615;BMP280;46444;45.590;5.284;2023-04-15T00:48:16;97994.38;;;11.87
60615;BMP280;46444;45.590;5.284;2023-04-15T00:50:41;97987.13;;;11.72
60615;BMP280;46444;45.590;5.284;2023-04-15T00:53:06;97992.72;;;11.71
60615;BMP280;46444;45.590;5.284;2023-04-15T00:55:32;97984.69;;;11.71
60615;BMP280;46444;45.590;5.284;2023-04-15T00:57:57;97988.97;;;11.72
60615;BMP280;46444;45.590;5.284;2023-04-15T01:00:23;97978.28;;;11.72
60615;BMP280;46444;45.590;5.284;2023-04-15T01:02:49;97985.50;;;11.76
60615;BMP280;46444;45.590;5.284;2023-04-15T01:05:16;97975.88;;;11.75
60615;BMP280;46444;45.590;5.284;2023-04-15T01:07:43;97977.22;;;11.78
60615;BMP280;46444;45.590;5.284;2023-04-15T01:10:09;97977.22;;;11.73
60615;BMP280;46444;45.590;5.284;2023-04-15T01:12:35;97983.63;;;11.72
60615;BMP280;46444;45.590;5.284;2023-04-15T01:15:19;97989.28;;;11.80
60615;BMP280;46444;45.590;5.284;2023-04-15T01:17:45;97988.75;;;11.78
60615;BMP280;46444;45.590;5.284;2023-04-15T01:20:24;97989.25;;;11.75
60615;BMP280;46444;45.590;5.284;2023-04-15T01:22:53;97992.16;;;11.69
60615;BMP280;46444;45.590;5.284;2023-04-15T01:25:30;97996.72;;;11.68
60615;BMP280;46444;45.590;5.284;2023-04-15T01:27:58;97997.25;;;11.65
60615;BMP280;46444;45.590;5.284;2023-04-15T01:30:25;97998.88;;;11.71
60615;BMP280;46444;45.590;5.284;2023-04-15T01:32:52;98002.63;;;11.70
60615;BMP280;46444;45.590;5.284;2023-04-15T01:35:18;98001.84;;;11.70
60615;BMP280;46444;45.590;5.284;2023-04-15T01:37:44;98010.69;;;11.80
60615;BMP280;46444;45.590;5.284;2023-04-15T01:40:09;98005.09;;;11.82
60615;BMP280;46444;45.590;5.284;2023-04-15T01:42:35;98003.97;;;11.73
60615;BMP280;46444;45.590;5.284;2023-04-15T01:45:02;98002.38;;;11.72
60615;BMP280;46444;45.590;5.284;2023-04-15T01:47:27;97999.94;;;11.60
60615;BMP280;46444;45.590;5.284;2023-04-15T01:49:53;97999.16;;;11.70
60615;BMP280;46444;45.590;5.284;2023-04-15T01:52:18;97999.44;;;11.73
60615;BMP280;46444;45.590;5.284;2023-04-15T01:54:43;97996.19;;;11.66
60615;BMP280;46444;45.590;5.284;2023-04-15T01:57:09;98001.53;;;11.61
60615;BMP280;46444;45.590;5.284;2023-04-15T01:59:35;98010.63;;;11.65
60615;BMP280;46444;45.590;5.284;2023-04-15T02:02:02;98001.28;;;11.68
60615;BMP280;46444;45.590;5.284;2023-04-15T02:04:28;98002.88;;;11.69
60615;BMP280;46444;45.590;5.284;2023-04-15T02:06:53;97989.25;;;11.75
60615;BMP280;46444;45.590;5.284;2023-04-15T02:09:19;97993.81;;;11.70
60615;BMP280;46444;45.590;5.284;2023-04-15T02:11:45;97987.88;;;11.63
60615;BMP280;46444;45.590;5.284;2023-04-15T02:14:10;97994.34;;;11.72
60615;BMP280;46444;45.590;5.284;2023-04-15T02:16:36;97992.16;;;11.59
60615;BMP280;46444;45.590;5.284;2023-04-15T02:19:01;97986.00;;;11.58
60615;BMP280;46444;45.590;5.284;2023-04-15T02:21:28;97991.63;;;11.62
60615;BMP280;46444;45.590;5.284;2023-04-15T02:23:54;97986.53;;;11.65
60615;BMP280;46444;45.590;5.284;2023-04-15T02:26:20;97987.38;;;11.71
60615;BMP280;46444;45.590;5.284;2023-04-15T02:28:46;97985.22;;;11.68
60615;BMP280;46444;45.590;5.284;2023-04-15T02:31:12;97987.88;;;11.63
60615;BMP280;46444;45.590;5.284;2023-04-15T02:33:38;97983.88;;;11.60
60615;BMP280;46444;45.590;5.284;2023-04-15T02:36:04;97983.53;;;11.57
60615;BMP280;46444;45.590;5.284;2023-04-15T02:38:30;97994.31;;;11.67
60615;BMP280;46444;45.590;5.284;2023-04-15T02:40:56;97988.97;;;11.72
60615;BMP280;46444;45.590;5.284;2023-04-15T02:43:22;97995.91;;;11.68
60615;BMP280;46444;45.590;5.284;2023-04-15T02:45:49;97981.47;;;11.69
60615;BMP280;46444;45.590;5.284;2023-04-15T02:48:15;97987.88;;;11.68
60615;BMP280;46444;45.590;5.284;2023-04-15T02:50:45;97997.00;;;11.67
60615;BMP280;46444;45.590;5.284;2023-04-15T02:53:13;97992.19;;;11.64
60615;BMP280;46444;45.590;5.284;2023-04-15T02:55:39;97992.72;;;11.66
60615;BMP280;46444;45.590;5.284;2023-04-15T02:58:15;97995.66;;;11.69
60615;BMP280;46444;45.590;5.284;2023-04-15T03:01:08;97987.09;;;11.67
60615;BMP280;46444;45.590;5.284;2023-04-15T03:03:52;97989.50;;;11.64
60615;BMP280;46444;45.590;5.284;2023-04-15T03:07:16;97988.41;;;11.60
60615;BMP280;46444;45.590;5.284;2023-04-15T03:10:07;97985.16;;;11.53
60615;BMP280;46444;45.590;5.284;2023-04-15T03:12:37;97986.53;;;11.65
60615;BMP280;46444;45.590;5.284;2023-04-15T03:15:23;97994.06;;;11.68
60615;BMP280;46444;45.590;5.284;2023-04-15T03:17:50;97986.00;;;11.58
60615;BMP280;46444;45.590;5.284;2023-04-15T03:20:15;97985.75;;;11.65
60615;BMP280;46444;45.590;5.284;2023-04-15T03:22:41;97984.34;;;11.57
60615;BMP280;46444;45.590;5.284;2023-04-15T03:25:06;97984.03;;;11.49
60615;BMP280;46444;45.590;5.284;2023-04-15T03:27:31;97980.31;;;11.55
60615;BMP280;46444;45.590;5.284;2023-04-15T03:29:57;97978.69;;;11.49
60615;BMP280;46444;45.590;5.284;2023-04-15T03:32:22;97984.59;;;11.56
60615;BMP280;46444;45.590;5.284;2023-04-15T03:34:48;97977.91;;;11.53
60615;BMP280;46444;45.590;5.284;2023-04-15T03:37:14;97972.53;;;11.48
60615;BMP280;46444;45.590;5.284;2023-04-15T03:39:39;97972.34;;;11.60
60615;BMP280;46444;45.590;5.284;2023-04-15T03:42:04;97966.94;;;11.55
60615;BMP280;46444;45.590;5.284;2023-04-15T03:44:30;97977.13;;;11.53
60615;BMP280;46444;45.590;5.284;2023-04-15T03:46:55;97973.97;;;11.61
60615;BMP280;46444;45.590;5.284;2023-04-15T03:49:22;97979.31;;;11.61
60615;BMP280;46444;45.590;5.284;2023-04-15T03:51:50;97979.31;;;11.61
60615;BMP280;46444;45.590;5.284;2023-04-15T03:54:15;97979.31;;;11.61
60615;BMP280;46444;45.590;5.284;2023-04-15T03:56:41;97977.41;;;11.56
60615;BMP280;46444;45.590;5.284;2023-04-15T03:59:07;97988.88;;;11.57
60615;BMP280;46444;45.590;5.284;2023-04-15T04:01:32;97985.16;;;11.58
60615;BMP280;46444;45.590;5.284;2023-04-15T04:03:57;97994.56;;;11.60
60615;BMP280;46444;45.590;5.284;2023-04-15T04:17:06;97995.72;;;11.89
60615;BMP280;46444;45.590;5.284;2023-04-15T04:19:35;98003.19;;;11.82
60615;BMP280;46444;45.590;5.284;2023-04-15T04:22:21;98001.84;;;11.80
60615;BMP280;46444;45.590;5.284;2023-04-15T04:25:25;98000.47;;;11.67
60615;BMP280;46444;45.590;5.284;2023-04-15T04:27:51;97999.66;;;11.67
60615;BMP280;46444;45.590;5.284;2023-04-15T04:30:16;97994.34;;;11.77
60615;BMP280;46444;45.590;5.284;2023-04-15T04:33:22;97998.91;;;11.81
60615;BMP280;46444;45.590;5.284;2023-04-15T04:35:47;97993.03;;;11.79
60615;BMP280;46444;45.590;5.284;2023-04-15T04:38:13;97990.38;;;11.84
60615;BMP280;46444;45.590;5.284;2023-04-15T04:40:40;98002.13;;;11.83
60615;BMP280;46444;45.590;5.284;2023-04-15T04:43:05;97992.19;;;11.74
60615;BMP280;46444;45.590;5.284;2023-04-15T04:45:37;98003.75;;;11.84
60615;BMP280;46444;45.590;5.284;2023-04-15T04:48:04;97990.09;;;11.86
60615;BMP280;46444;45.590;5.284;2023-04-15T04:51:15;98002.63;;;11.75
60615;BMP280;46444;45.590;5.284;2023-04-15T04:53:41;97998.59;;;11.68
60615;BMP280;46444;45.590;5.284;2023-04-15T04:56:07;97999.72;;;11.77
60615;BMP280;46444;45.590;5.284;2023-04-15T04:58:36;97995.97;;;11.78
60615;BMP280;46444;45.590;5.284;2023-04-15T05:01:21;98005.06;;;11.77
60615;BMP280;46444;45.590;5.284;2023-04-15T05:03:49;98007.19;;;11.70
60615;BMP280;46444;45.590;5.284;2023-04-15T05:06:15;98011.97;;;11.68
60615;BMP280;46444;45.590;5.284;2023-04-15T05:08:40;98003.44;;;11.71
60615;BMP280;46444;45.590;5.284;2023-04-15T05:11:08;98005.03;;;11.72
60615;BMP280;46444;45.590;5.284;2023-04-15T05:13:34;98012.53;;;11.70
60615;BMP280;46444;45.590;5.284;2023-04-15T05:16:04;98012.50;;;11.65
60615;BMP280;46444;45.590;5.284;2023-04-15T05:18:34;98010.41;;;11.77
60615;BMP280;46444;45.590;5.284;2023-04-15T05:21:01;98018.41;;;11.72
60615;BMP280;46444;45.590;5.284;2023-04-15T05:23:26;98011.47;;;11.71
60615;BMP280;46444;45.590;5.284;2023-04-15T05:25:53;98015.22;;;11.70
60615;BMP280;46444;45.590;5.284;2023-04-15T05:28:18;98017.78;;;11.55
60615;BMP280;46444;45.590;5.284;2023-04-15T05:30:44;98018.41;;;11.67
60615;BMP280;46444;45.590;5.284;2023-04-15T05:33:10;98019.50;;;11.71
60615;BMP280;46444;45.590;5.284;2023-04-15T05:35:35;98030.16;;;11.61
60615;BMP280;46444;45.590;5.284;2023-04-15T05:38:01;98023.72;;;11.62
60615;BMP280;46444;45.590;5.284;2023-04-15T05:40:26;98032.81;;;11.61
60615;BMP280;46444;45.590;5.284;2023-04-15T05:42:52;98034.38;;;11.52
60615;BMP280;46444;45.590;5.284;2023-04-15T05:45:17;98047.03;;;11.61
60615;BMP280;46444;45.590;5.284;2023-04-15T05:47:43;98042.38;;;11.47
60615;BMP280;46444;45.590;5.284;2023-04-15T05:50:08;98045.56;;;11.49
60615;BMP280;46444;45.590;5.284;2023-04-15T05:52:35;98043.53;;;11.61
60615;BMP280;46444;45.590;5.284;2023-04-15T05:55:01;98030.06;;;11.46
60615;BMP280;46444;45.590;5.284;2023-04-15T05:57:26;98028.19;;;11.51
60615;BMP280;46444;45.590;5.284;2023-04-15T05:59:51;98044.78;;;11.53
60615;BMP280;46444;45.590;5.284;2023-04-15T06:02:17;98035.44;;;11.56
60615;BMP280;46444;45.590;5.284;2023-04-15T06:04:43;98030.09;;;11.56
60615;BMP280;46444;45.590;5.284;2023-04-15T06:07:08;98028.81;;;11.63
60615;BMP280;46444;45.590;5.284;2023-04-15T06:09:34;98033.41;;;11.73
60615;BMP280;46444;45.590;5.284;2023-04-15T06:11:59;98043.09;;;11.84
60615;BMP280;46444;45.590;5.284;2023-04-15T06:14:26;98050.78;;;11.70
60615;BMP280;46444;45.590;5.284;2023-04-15T06:16:51;98055.31;;;11.65
60615;BMP280;46444;45.590;5.284;2023-04-15T06:19:16;98060.25;;;11.41
60615;BMP280;46444;45.590;5.284;2023-04-15T06:34:07;98090.72;;;11.40
60615;BMP280;46444;45.590;5.284;2023-04-15T11:45:33;98395.78;;;11.24
60615;BMP280;46444;45.590;5.284;2023-04-15T13:48:21;98530.69;;;10.78
60615;BMP280;46444;45.590;5.284;2023-04-15T13:51:21;98544.94;;;10.84
60615;BMP280;46444;45.590;5.284;2023-04-15T14:01:17;98541.47;;;10.67
60615;BMP280;46444;45.590;5.284;2023-04-15T14:03:55;98557.09;;;10.75
60615;BMP280;46444;45.590;5.284;2023-04-15T14:06:30;98550.84;;;10.53
60615;BMP280;46444;45.590;5.284;2023-04-15T14:09:23;98554.09;;;10.55
60615;BMP280;46444;45.590;5.284;2023-04-15T14:12:03;98553.44;;;10.48
60615;BMP280;46444;45.590;5.284;2023-04-15T14:14:29;98562.59;;;10.52
60615;BMP280;46444;45.590;5.284;2023-04-15T14:16:57;98560.25;;;10.55
60615;BMP280;46444;45.590;5.284;2023-04-15T14:19:24;98568.09;;;10.62
60615;BMP280;46444;45.590;5.284;2023-04-15T14:21:53;98563.25;;;10.59
60615;BMP280;46444;45.590;5.284;2023-04-15T14:24:19;98568.50;;;10.54
60615;BMP280;46444;45.590;5.284;2023-04-15T14:26:44;98579.38;;;10.64
60615;BMP280;46444;45.590;5.284;2023-04-15T14:29:09;98575.31;;;10.61
60615;BMP280;46444;45.590;5.284;2023-04-15T14:31:35;98575.41;;;10.66
60615;BMP280;46444;45.590;5.284;2023-04-15T14:34:00;98585.09;;;10.56
60615;BMP280;46444;45.590;5.284;2023-04-15T14:36:38;98580.34;;;10.58
60615;BMP280;46444;45.590;5.284;2023-04-15T14:39:44;98582.03;;;10.64
60615;BMP280;46444;45.590;5.284;2023-04-15T14:42:09;98593.19;;;10.61
60615;BMP280;46444;45.590;5.284;2023-04-15T14:44:35;98591.66;;;10.65
60615;BMP280;46444;45.590;5.284;2023-04-15T14:47:38;98595.50;;;10.69
60615;BMP280;46444;45.590;5.284;2023-04-15T14:50:04;98593.47;;;10.76
60615;BMP280;46444;45.590;5.284;2023-04-15T14:52:30;98589.56;;;10.67
60615;BMP280;46444;45.590;5.284;2023-04-15T14:58:09;98598.84;;;10.64
60615;BMP280;46444;45.590;5.284;2023-04-15T15:00:35;98604.28;;;10.86
60615;BMP280;46444;45.590;5.284;2023-04-15T15:03:03;98607.13;;;10.63
60615;BMP280;46444;45.590;5.284;2023-04-15T15:05:35;98603.09;;;10.77
60615;BMP280;46444;45.590;5.284;2023-04-15T15:11:20;98609.88;;;10.68
60615;BMP280;46444;45.590;5.284;2023-04-15T15:26:32;98636.41;;;10.41
60615;BMP280;46444;45.590;5.284;2023-04-15T15:28:57;98641.06;;;10.34
60615;BMP280;46444;45.590;5.284;2023-04-15T15:31:26;98635.03;;;10.39
60615;BMP280;46444;45.590;5.284;2023-04-15T15:37:25;98643.31;;;10.54
60615;BMP280;46444;45.590;5.284;2023-04-15T15:43:41;98653.09;;;10.48
60615;BMP280;46444;45.590;5.284;2023-04-15T16:01:06;98664.78;;;10.59
60615;BMP280;46444;45.590;5.284;2023-04-15T16:03:32;98664.38;;;10.67
60615;BMP280;46444;45.590;5.284;2023-04-15T16:05:57;98681.44;;;10.77
60615;BMP280;46444;45.590;5.284;2023-04-15T17:11:07;98751.00;;;10.54
60615;BMP280;46444;45.590;5.284;2023-04-15T17:14:09;98752.56;;;10.27
60615;BMP280;46444;45.590;5.284;2023-04-15T17:17:04;98747.81;;;10.29
60615;BMP280;46444;45.590;5.284;2023-04-15T17:23:04;98769.03;;;10.47
60615;BMP280;46444;45.590;5.284;2023-04-15T17:29:25;98762.38;;;10.50
60615;BMP280;46444;45.590;5.284;2023-04-15T17:39:08;98779.25;;;10.39
60615;BMP280;46444;45.590;5.284;2023-04-15T17:42:31;98791.91;;;10.32
60615;BMP280;46444;45.590;5.284;2023-04-15T18:13:28;98807.00;;;9.92
60615;BMP280;46444;45.590;5.284;2023-04-15T22:00:18;99011.66;;;10.62
60615;BMP280;46444;45.590;5.284;2023-04-15T22:43:01;99047.22;;;10.74
60615;BMP280;46444;45.590;5.284;2023-04-15T22:46:38;99054.22;;;10.86
60615;BMP280;46444;45.590;5.284;2023-04-15T23:03:30;99043.06;;;10.78
60615;BMP280;46444;45.590;5.284;2023-04-15T23:09:39;99055.84;;;10.76
60615;BMP280;46444;45.590;5.284;2023-04-15T23:20:17;99056.41;;;10.78
60615;BMP280;46444;45.590;5.284;2023-04-15T23:29:56;99074.38;;;10.48
60615;BMP280;46444;45.590;5.284;2023-04-15T23:36:09;99088.31;;;10.50
60615;BMP280;46444;45.590;5.284;2023-04-15T23:52:46;99101.22;;;10.53
